createdAt,value
2017-04-08T00:00:46.435Z,41.17
2017-04-08T00:01:44.326Z,39.72
2017-04-08T00:02:41.815Z,43.57
2017-04-08T00:03:40.090Z,42.93
2017-04-08T00:04:37.956Z,44.53
2017-04-08T00:05:35.842Z,43.15
2017-04-08T00:06:33.809Z,42.15
2017-04-08T00:07:31.734Z,42.45
2017-04-08T00:08:29.750Z,43.32
2017-04-08T00:09:27.663Z,40.55
2017-04-08T00:10:25.545Z,42.17
2017-04-08T00:11:23.462Z,40.68
2017-04-08T00:12:21.335Z,40.10
2017-04-08T00:13:19.214Z,40.27
2017-04-08T00:14:17.092Z,39.40
2017-04-08T00:15:15.035Z,40.77
2017-04-08T00:16:12.926Z,40.23
2017-04-08T00:17:10.809Z,39.52
2017-04-08T00:18:08.725Z,38.75
2017-04-08T00:19:06.604Z,40.13
2017-04-08T00:20:04.829Z,40.50
2017-04-08T00:21:02.782Z,42.03
2017-04-08T00:22:00.667Z,40.83
2017-04-08T00:22:58.565Z,42.00
2017-04-08T00:23:56.494Z,40.58
2017-04-08T00:24:54.720Z,40.82
2017-04-08T00:25:52.601Z,42.72
2017-04-08T00:26:50.540Z,41.63
2017-04-08T00:27:48.417Z,44.93
2017-04-08T00:28:46.275Z,42.03
2017-04-08T00:29:44.137Z,41.25
2017-04-08T00:30:42.016Z,41.75
2017-04-08T00:31:40.333Z,42.07
2017-04-08T00:32:38.289Z,45.28
2017-04-08T00:33:36.211Z,42.13
2017-04-08T00:34:34.089Z,42.15
2017-04-08T00:35:31.979Z,42.20
2017-04-08T00:36:29.862Z,44.78
2017-04-08T00:37:27.714Z,43.75
2017-04-08T00:38:25.614Z,44.72
2017-04-08T00:39:23.490Z,45.02
2017-04-08T00:40:21.338Z,41.50
2017-04-08T00:41:19.222Z,42.92
2017-04-08T00:42:17.094Z,42.75
2017-04-08T00:43:14.590Z,43.57
2017-04-08T00:44:13.368Z,42.13
2017-04-08T00:45:11.249Z,42.85
2017-04-08T00:46:09.118Z,44.02
2017-04-08T00:47:06.983Z,43.05
2017-04-08T00:48:04.859Z,43.57
2017-04-08T00:49:02.367Z,41.32
2017-04-08T00:50:00.286Z,43.12
2017-04-08T00:50:58.194Z,44.78
2017-04-08T00:51:56.078Z,44.72
2017-04-08T00:52:54.439Z,40.85
2017-04-08T00:53:52.686Z,43.63
2017-04-08T00:54:50.558Z,43.10
2017-04-08T00:55:48.478Z,45.20
2017-04-08T00:56:45.969Z,43.57
2017-04-08T00:57:43.850Z,45.42
2017-04-08T00:58:42.092Z,45.77
2017-04-08T00:59:39.618Z,46.82
2017-04-08T01:00:37.538Z,42.83
2017-04-08T01:01:35.472Z,41.32
2017-04-08T01:02:33.205Z,44.35
2017-04-08T01:03:31.479Z,45.95
2017-04-08T01:04:29.403Z,45.47
2017-04-08T01:05:27.333Z,42.13
2017-04-08T01:06:24.822Z,42.75
2017-04-08T01:07:22.763Z,45.75
2017-04-08T01:08:20.322Z,45.27
2017-04-08T01:09:18.240Z,44.23
2017-04-08T01:10:16.190Z,45.25
2017-04-08T01:11:14.462Z,43.58
2017-04-08T01:12:12.770Z,45.42
2017-04-08T01:13:10.690Z,44.37
2017-04-08T01:14:08.690Z,44.45
2017-04-08T01:15:06.578Z,43.22
2017-04-08T01:16:04.461Z,45.10
2017-04-08T01:17:02.711Z,45.80
2017-04-08T01:18:00.714Z,48.50
2017-04-08T01:18:58.623Z,45.27
2017-04-08T01:19:56.090Z,43.77
2017-04-08T01:20:53.609Z,46.57
2017-04-08T01:21:51.481Z,44.38
2017-04-08T01:22:48.946Z,43.07
2017-04-08T01:23:47.174Z,44.77
2017-04-08T01:24:45.099Z,43.83
2017-04-08T01:25:42.962Z,45.33
2017-04-08T01:26:40.835Z,43.13
2017-04-08T01:27:38.710Z,44.75
2017-04-08T01:28:36.577Z,43.33
2017-04-08T01:29:34.054Z,43.98
2017-04-08T01:30:31.573Z,44.18
2017-04-08T01:31:29.826Z,43.33
2017-04-08T01:32:27.674Z,45.25
2017-04-08T01:33:25.542Z,45.17
2017-04-08T01:34:23.580Z,44.87
2017-04-08T01:35:21.485Z,47.00
2017-04-08T01:36:19.443Z,43.43
2017-04-08T01:37:17.311Z,42.08
2017-04-08T01:38:15.566Z,44.30
2017-04-08T01:39:13.810Z,44.93
2017-04-08T01:40:11.718Z,46.30
2017-04-08T01:41:09.587Z,43.37
2017-04-08T01:42:07.550Z,44.68
2017-04-08T01:43:05.440Z,46.42
2017-04-08T01:44:03.306Z,45.02
2017-04-08T01:45:01.188Z,45.13
2017-04-08T01:45:59.417Z,47.63
2017-04-08T01:46:57.307Z,44.75
2017-04-08T01:47:55.206Z,46.80
2017-04-08T01:48:53.062Z,47.17
2017-04-08T01:49:50.942Z,46.52
2017-04-08T01:50:48.961Z,44.03
2017-04-08T01:51:46.819Z,46.33
2017-04-08T01:52:44.729Z,44.15
2017-04-08T01:53:43.038Z,48.02
2017-04-08T01:54:41.278Z,45.38
2017-04-08T01:55:39.274Z,44.28
2017-04-08T01:56:37.163Z,43.90
2017-04-08T01:57:35.014Z,45.75
2017-04-08T01:58:32.491Z,47.13
2017-04-08T01:59:30.007Z,47.30
2017-04-08T02:00:27.882Z,45.82
2017-04-08T02:01:25.822Z,45.55
2017-04-08T02:02:23.748Z,47.73
2017-04-08T02:03:21.982Z,47.47
2017-04-08T02:04:19.891Z,47.53
2017-04-08T02:05:17.855Z,46.72
2017-04-08T02:06:15.763Z,46.90
2017-04-08T02:07:13.691Z,46.95
2017-04-08T02:08:11.566Z,46.53
2017-04-08T02:09:09.460Z,45.53
2017-04-08T02:10:07.346Z,46.60
2017-04-08T02:11:05.270Z,46.02
2017-04-08T02:12:03.188Z,48.00
2017-04-08T02:13:01.050Z,45.40
2017-04-08T02:13:58.578Z,47.27
2017-04-08T02:14:56.054Z,45.78
2017-04-08T02:15:53.910Z,48.07
2017-04-08T02:16:51.415Z,45.28
2017-04-08T02:17:49.662Z,44.75
2017-04-08T02:18:47.729Z,45.57
2017-04-08T02:19:45.607Z,45.65
2017-04-08T02:20:43.886Z,44.45
2017-04-08T02:21:41.750Z,45.75
2017-04-08T02:22:39.662Z,46.98
2017-04-08T02:23:37.743Z,46.37
2017-04-08T02:24:36.008Z,44.05
2017-04-08T02:25:33.490Z,45.85
2017-04-08T02:26:31.354Z,46.30
2017-04-08T02:27:29.211Z,44.32
2017-04-08T02:28:27.169Z,47.42
2017-04-08T02:29:24.626Z,46.77
2017-04-08T02:30:22.485Z,47.00
2017-04-08T02:31:20.566Z,48.40
2017-04-08T02:32:18.423Z,46.18
2017-04-08T02:33:16.293Z,46.97
2017-04-08T02:34:13.808Z,46.98
2017-04-08T02:35:11.682Z,46.10
2017-04-08T02:36:09.601Z,47.92
2017-04-08T02:37:07.478Z,47.10
2017-04-08T02:38:05.342Z,48.00
2017-04-08T02:39:03.310Z,45.83
2017-04-08T02:40:01.205Z,48.78
2017-04-08T02:40:59.651Z,48.27
2017-04-08T02:41:57.541Z,46.23
2017-04-08T02:42:55.773Z,44.32
2017-04-08T02:43:53.642Z,45.77
2017-04-08T02:44:51.502Z,45.85
2017-04-08T02:45:49.429Z,45.33
2017-04-08T02:46:47.308Z,45.23
2017-04-08T02:47:45.554Z,43.68
2017-04-08T02:48:43.425Z,44.82
2017-04-08T02:49:41.287Z,44.33
2017-04-08T02:50:39.155Z,45.43
2017-04-08T02:51:37.084Z,44.68
2017-04-08T02:52:34.937Z,46.28
2017-04-08T02:53:32.805Z,45.97
2017-04-08T02:54:30.663Z,48.37
2017-04-08T02:55:28.534Z,44.20
2017-04-08T02:56:26.426Z,45.75
2017-04-08T02:57:24.349Z,44.58
2017-04-08T02:58:22.223Z,45.28
2017-04-08T02:59:20.094Z,44.73
2017-04-08T03:00:18.363Z,43.83
2017-04-08T03:01:15.916Z,45.60
2017-04-08T03:02:13.955Z,45.50
2017-04-08T03:03:11.848Z,46.67
2017-04-08T03:04:09.734Z,47.37
2017-04-08T03:05:07.586Z,47.13
2017-04-08T03:06:05.455Z,45.92
2017-04-08T03:07:03.382Z,47.10
2017-04-08T03:08:01.242Z,47.47
2017-04-08T03:08:59.274Z,47.85
2017-04-08T03:09:57.505Z,46.48
2017-04-08T03:10:55.378Z,46.12
2017-04-08T03:11:53.250Z,46.67
2017-04-08T03:12:50.726Z,47.97
2017-04-08T03:13:48.625Z,44.35
2017-04-08T03:14:46.558Z,46.62
2017-04-08T03:15:44.531Z,47.90
2017-04-08T03:16:42.394Z,45.20
2017-04-08T03:17:40.286Z,47.38
2017-04-08T03:18:38.164Z,44.53
2017-04-08T03:19:35.630Z,46.10
2017-04-08T03:20:33.539Z,48.75
2017-04-08T03:21:31.391Z,44.50
2017-04-08T03:22:28.851Z,45.57
2017-04-08T03:23:26.722Z,45.75
2017-04-08T03:24:24.582Z,47.88
2017-04-08T03:25:22.450Z,47.73
2017-04-08T03:26:20.354Z,45.40
2017-04-08T03:27:18.254Z,44.30
2017-04-08T03:28:16.144Z,43.95
2017-04-08T03:29:14.018Z,46.58
2017-04-08T03:30:11.889Z,42.75
2017-04-08T03:31:09.750Z,47.38
2017-04-08T03:32:07.650Z,47.42
2017-04-08T03:33:05.523Z,47.82
2017-04-08T03:34:03.762Z,46.00
2017-04-08T03:35:01.633Z,44.82
2017-04-08T03:35:59.513Z,47.80
2017-04-08T03:36:57.763Z,48.33
2017-04-08T03:37:55.257Z,47.22
2017-04-08T03:38:53.129Z,47.27
2017-04-08T03:39:51.086Z,45.28
2017-04-08T03:40:48.947Z,45.47
2017-04-08T03:41:46.814Z,48.03
2017-04-08T03:42:44.783Z,46.53
2017-04-08T03:43:42.698Z,47.73
2017-04-08T03:44:40.182Z,46.90
2017-04-08T03:45:38.053Z,47.42
2017-04-08T03:46:35.918Z,47.77
2017-04-08T03:47:33.882Z,46.93
2017-04-08T03:48:31.333Z,47.22
2017-04-08T03:49:28.834Z,45.90
2017-04-08T03:50:26.706Z,49.93
2017-04-08T03:51:24.942Z,46.70
2017-04-08T03:52:22.874Z,45.83
2017-04-08T03:53:20.751Z,44.77
2017-04-08T03:54:18.618Z,46.88
2017-04-08T03:55:16.526Z,47.83
2017-04-08T03:56:14.746Z,44.65
2017-04-08T03:57:12.795Z,46.60
2017-04-08T03:58:10.268Z,44.32
2017-04-08T03:59:08.314Z,48.12
2017-04-08T04:00:06.298Z,47.67
2017-04-08T04:01:04.248Z,48.38
2017-04-08T04:02:02.115Z,44.93
2017-04-08T04:02:59.970Z,47.13
2017-04-08T04:03:57.830Z,47.48
2017-04-08T04:04:55.726Z,48.20
2017-04-08T04:05:53.585Z,47.53
2017-04-08T04:06:51.518Z,46.40
2017-04-08T04:07:49.387Z,46.03
2017-04-08T04:08:47.271Z,47.62
2017-04-08T04:09:45.138Z,48.60
2017-04-08T04:10:42.998Z,46.72
2017-04-08T04:11:40.609Z,48.27
2017-04-08T04:12:38.522Z,45.38
2017-04-08T04:13:36.447Z,46.85
2017-04-08T04:14:33.922Z,46.15
2017-04-08T04:15:31.850Z,44.55
2017-04-08T04:16:29.347Z,46.02
2017-04-08T04:17:27.237Z,45.15
2017-04-08T04:18:25.164Z,44.25
2017-04-08T04:19:23.058Z,45.55
2017-04-08T04:20:20.937Z,47.75
2017-04-08T04:21:18.426Z,48.10
2017-04-08T04:22:16.316Z,46.73
2017-04-08T04:23:14.199Z,48.67
2017-04-08T04:24:12.488Z,47.02
2017-04-08T04:25:10.361Z,46.00
2017-04-08T04:26:08.258Z,45.83
2017-04-08T04:27:06.159Z,46.83
2017-04-08T04:28:04.056Z,45.43
2017-04-08T04:29:01.905Z,47.93
2017-04-08T04:30:00.178Z,47.68
2017-04-08T04:30:58.399Z,46.20
2017-04-08T04:31:56.269Z,46.08
2017-04-08T04:32:54.126Z,48.97
2017-04-08T04:33:51.968Z,48.10
2017-04-08T04:34:49.442Z,48.15
2017-04-08T04:35:47.422Z,45.48
2017-04-08T04:36:45.301Z,48.52
2017-04-08T04:37:43.163Z,44.90
2017-04-08T04:38:41.089Z,47.82
2017-04-08T04:39:38.950Z,48.70
2017-04-08T04:40:36.831Z,48.08
2017-04-08T04:41:34.354Z,46.12
2017-04-08T04:42:32.234Z,47.45
2017-04-08T04:43:30.106Z,47.92
2017-04-08T04:44:28.015Z,48.40
2017-04-08T04:45:25.898Z,47.80
2017-04-08T04:46:23.359Z,48.73
2017-04-08T04:47:21.249Z,46.37
2017-04-08T04:48:19.118Z,45.62
2017-04-08T04:49:17.338Z,48.45
2017-04-08T04:50:15.194Z,46.25
2017-04-08T04:51:13.058Z,46.60
2017-04-08T04:52:10.934Z,48.73
2017-04-08T04:53:08.827Z,48.77
2017-04-08T04:54:06.682Z,47.32
2017-04-08T04:55:04.545Z,44.77
2017-04-08T04:56:02.405Z,45.18
2017-04-08T04:56:59.867Z,45.73
2017-04-08T04:57:57.826Z,45.32
2017-04-08T04:58:55.726Z,47.52
2017-04-08T04:59:53.193Z,48.80
2017-04-08T05:00:51.440Z,49.00
2017-04-08T05:01:49.711Z,49.07
2017-04-08T05:02:47.565Z,48.12
2017-04-08T05:03:45.434Z,49.85
2017-04-08T05:04:43.718Z,46.70
2017-04-08T05:05:41.598Z,48.68
2017-04-08T05:06:39.464Z,48.77
2017-04-08T05:07:37.323Z,46.98
2017-04-08T05:08:35.207Z,47.33
2017-04-08T05:09:33.107Z,45.13
2017-04-08T05:10:30.999Z,46.85
2017-04-08T05:11:28.866Z,46.08
2017-04-08T05:12:26.746Z,44.73
2017-04-08T05:13:24.970Z,46.00
2017-04-08T05:14:22.824Z,47.22
2017-04-08T05:15:20.702Z,46.70
2017-04-08T05:16:18.250Z,47.20
2017-04-08T05:17:16.235Z,45.80
2017-04-08T05:18:14.518Z,46.90
2017-04-08T05:19:12.010Z,47.05
2017-04-08T05:20:09.867Z,44.45
2017-04-08T05:21:07.735Z,45.98
2017-04-08T05:22:05.635Z,44.58
2017-04-08T05:23:03.517Z,46.25
2017-04-08T05:24:01.374Z,46.38
2017-04-08T05:24:59.234Z,47.18
2017-04-08T05:25:57.102Z,45.50
2017-04-08T05:26:54.987Z,47.78
2017-04-08T05:27:52.907Z,46.45
2017-04-08T05:28:50.762Z,47.82
2017-04-08T05:29:48.230Z,46.57
2017-04-08T05:30:46.086Z,47.05
2017-04-08T05:31:43.957Z,49.57
2017-04-08T05:32:41.822Z,48.70
2017-04-08T05:33:39.332Z,46.55
2017-04-08T05:34:37.197Z,44.48
2017-04-08T05:35:35.153Z,47.72
2017-04-08T05:36:33.036Z,47.15
2017-04-08T05:37:30.906Z,47.62
2017-04-08T05:38:28.778Z,46.58
2017-04-08T05:39:27.051Z,46.63
2017-04-08T05:40:24.925Z,45.62
2017-04-08T05:41:22.796Z,44.88
2017-04-08T05:42:20.402Z,47.27
2017-04-08T05:43:18.258Z,48.25
2017-04-08T05:44:16.118Z,46.22
2017-04-08T05:45:14.010Z,46.23
2017-04-08T05:46:11.904Z,46.87
2017-04-08T05:47:09.754Z,45.62
2017-04-08T05:48:07.665Z,46.68
2017-04-08T05:49:05.559Z,45.43
2017-04-08T05:50:03.806Z,46.43
2017-04-08T05:51:01.704Z,44.28
2017-04-08T05:51:59.570Z,45.60
2017-04-08T05:52:57.051Z,49.42
2017-04-08T05:53:54.899Z,46.52
2017-04-08T05:54:52.807Z,47.45
2017-04-08T05:55:50.688Z,49.12
2017-04-08T05:56:48.209Z,44.20
2017-04-08T05:57:46.085Z,45.07
2017-04-08T05:58:43.975Z,46.77
2017-04-08T05:59:41.833Z,44.25
2017-04-08T06:00:39.702Z,46.90
2017-04-08T06:01:37.562Z,45.53
2017-04-08T06:02:35.494Z,47.20
2017-04-08T06:03:33.360Z,48.57
2017-04-08T06:04:31.246Z,44.15
2017-04-08T06:05:29.098Z,45.57
2017-04-08T06:06:26.993Z,45.33
2017-04-08T06:07:24.849Z,47.27
2017-04-08T06:08:22.331Z,46.28
2017-04-08T06:09:20.203Z,46.87
2017-04-08T06:10:18.072Z,43.85
2017-04-08T06:11:16.395Z,46.37
2017-04-08T06:12:14.258Z,45.52
2017-04-08T06:13:12.154Z,46.55
2017-04-08T06:14:09.913Z,43.77
2017-04-08T06:15:07.773Z,44.77
2017-04-08T06:16:05.642Z,45.05
2017-04-08T06:17:03.566Z,46.02
2017-04-08T06:18:01.455Z,46.90
2017-04-08T06:18:59.698Z,45.43
2017-04-08T06:19:57.630Z,45.33
2017-04-08T06:20:55.514Z,43.93
2017-04-08T06:21:53.414Z,47.57
2017-04-08T06:22:51.270Z,48.37
2017-04-08T06:23:48.767Z,46.25
2017-04-08T06:24:46.617Z,46.93
2017-04-08T06:25:44.586Z,44.30
2017-04-08T06:26:42.478Z,45.23
2017-04-08T06:27:40.361Z,44.40
2017-04-08T06:28:38.246Z,47.28
2017-04-08T06:29:36.471Z,46.57
2017-04-08T06:30:34.345Z,46.02
2017-04-08T06:31:32.286Z,46.82
2017-04-08T06:32:30.156Z,44.82
2017-04-08T06:33:28.033Z,44.72
2017-04-08T06:34:25.922Z,45.62
2017-04-08T06:35:23.850Z,44.87
2017-04-08T06:36:21.727Z,47.22
2017-04-08T06:37:19.626Z,45.17
2017-04-08T06:38:17.530Z,45.62
2017-04-08T06:39:15.422Z,44.32
2017-04-08T06:40:12.879Z,45.20
2017-04-08T06:41:10.730Z,44.93
2017-04-08T06:42:08.590Z,47.07
2017-04-08T06:43:06.492Z,45.40
2017-04-08T06:44:04.716Z,43.35
2017-04-08T06:45:02.591Z,46.72
2017-04-08T06:46:00.463Z,45.73
2017-04-08T06:46:58.346Z,47.33
2017-04-08T06:47:56.217Z,49.30
2017-04-08T06:48:54.137Z,47.95
2017-04-08T06:49:52.390Z,46.85
2017-04-08T06:50:50.634Z,43.80
2017-04-08T06:51:48.511Z,46.97
2017-04-08T06:52:46.370Z,45.07
2017-04-08T06:53:44.284Z,46.93
2017-04-08T06:54:42.206Z,45.38
2017-04-08T06:55:39.670Z,45.52
2017-04-08T06:56:37.161Z,43.73
2017-04-08T06:57:35.106Z,44.50
2017-04-08T06:58:33.023Z,44.58
2017-04-08T06:59:31.257Z,46.22
2017-04-08T07:00:29.181Z,45.75
2017-04-08T07:01:27.137Z,45.52
2017-04-08T07:02:26.855Z,45.23
2017-04-08T07:03:24.915Z,45.82
2017-04-08T07:04:22.801Z,42.38
2017-04-08T07:05:21.026Z,44.87
2017-04-08T07:06:18.946Z,47.10
2017-04-08T07:07:16.407Z,43.32
2017-04-08T07:08:14.671Z,43.55
2017-04-08T07:09:12.274Z,43.65
2017-04-08T07:10:10.170Z,44.85
2017-04-08T07:11:08.525Z,46.40
2017-04-08T07:12:06.439Z,44.53
2017-04-08T07:13:04.354Z,43.82
2017-04-08T07:14:02.235Z,43.97
2017-04-08T07:15:00.118Z,43.68
2017-04-08T07:15:58.088Z,43.38
2017-04-08T07:16:55.969Z,45.15
2017-04-08T07:17:53.867Z,43.20
2017-04-08T07:18:51.398Z,43.88
2017-04-08T07:19:49.923Z,44.63
2017-04-08T07:20:47.859Z,45.15
2017-04-08T07:21:45.381Z,46.33
2017-04-08T07:22:43.618Z,44.08
2017-04-08T07:23:41.514Z,43.00
2017-04-08T07:24:39.395Z,42.30
2017-04-08T07:25:37.267Z,41.55
2017-04-08T07:26:35.117Z,45.97
2017-04-08T07:27:33.019Z,43.08
2017-04-08T07:28:30.903Z,42.87
2017-04-08T07:29:28.838Z,44.60
2017-04-08T07:30:26.703Z,42.63
2017-04-08T07:31:24.957Z,44.90
2017-04-08T07:32:22.826Z,43.85
2017-04-08T07:33:20.701Z,43.03
2017-04-08T07:34:18.206Z,41.68
2017-04-08T07:35:16.130Z,43.18
2017-04-08T07:36:14.064Z,42.77
2017-04-08T07:37:11.544Z,45.22
2017-04-08T07:38:09.475Z,44.32
2017-04-08T07:39:07.443Z,43.98
2017-04-08T07:40:07.838Z,42.58
2017-04-08T07:41:05.779Z,44.18
2017-04-08T07:42:04.047Z,42.60
2017-04-08T07:43:01.586Z,41.97
2017-04-08T07:43:59.455Z,44.83
2017-04-08T07:44:57.310Z,42.67
2017-04-08T07:45:55.274Z,43.85
2017-04-08T07:46:53.174Z,44.30
2017-04-08T07:47:51.078Z,44.67
2017-04-08T07:48:48.961Z,42.27
2017-04-08T07:49:46.876Z,43.92
2017-04-08T07:50:44.878Z,43.05
2017-04-08T07:51:43.125Z,42.82
2017-04-08T07:52:41.111Z,44.30
2017-04-08T07:53:39.002Z,47.37
2017-04-08T07:54:37.170Z,44.13
2017-04-08T07:55:35.063Z,43.55
2017-04-08T07:56:33.338Z,40.87
2017-04-08T07:57:31.595Z,41.85
2017-04-08T07:58:30.032Z,44.17
2017-04-08T07:59:27.927Z,43.98
2017-04-08T08:00:26.146Z,45.37
2017-04-08T08:01:24.178Z,42.85
2017-04-08T08:02:22.091Z,46.55
2017-04-08T08:03:19.654Z,44.10
2017-04-08T08:04:17.994Z,44.67
2017-04-08T08:05:15.994Z,40.67
2017-04-08T08:06:14.460Z,44.10
2017-04-08T08:07:12.734Z,41.97
2017-04-08T08:08:10.597Z,42.38
2017-04-08T08:09:09.234Z,44.08
2017-04-08T08:10:07.154Z,44.47
2017-04-08T08:11:05.235Z,42.70
2017-04-08T08:12:03.127Z,41.85
2017-04-08T08:13:00.637Z,40.47
2017-04-08T08:13:58.507Z,39.23
2017-04-08T08:14:56.452Z,40.95
2017-04-08T08:15:54.450Z,42.50
2017-04-08T08:16:51.915Z,44.48
2017-04-08T08:17:49.798Z,42.62
2017-04-08T08:18:47.661Z,41.38
2017-04-08T08:19:45.531Z,43.52
2017-04-08T08:20:43.460Z,42.72
2017-04-08T08:21:41.022Z,44.15
2017-04-08T08:22:38.940Z,45.95
2017-04-08T08:23:36.823Z,41.83
2017-04-08T08:24:34.691Z,42.10
2017-04-08T08:25:32.553Z,43.18
2017-04-08T08:26:30.041Z,41.73
2017-04-08T08:27:27.627Z,42.17
2017-04-08T08:28:25.503Z,40.15
2017-04-08T08:29:23.394Z,39.75
2017-04-08T08:30:21.674Z,42.02
2017-04-08T08:31:19.833Z,40.28
2017-04-08T08:32:17.710Z,42.28
2017-04-08T08:33:15.317Z,40.45
2017-04-08T08:34:13.214Z,41.62
2017-04-08T08:35:11.079Z,40.27
2017-04-08T08:36:08.566Z,41.20
2017-04-08T08:37:06.430Z,40.83
2017-04-08T08:38:03.946Z,39.88
2017-04-08T08:39:01.874Z,41.73
2017-04-08T08:39:59.796Z,41.68
2017-04-08T08:40:57.659Z,42.22
2017-04-08T08:41:55.527Z,39.28
2017-04-08T08:42:53.842Z,39.73
2017-04-08T08:43:51.715Z,37.57
2017-04-08T08:44:49.642Z,40.00
2017-04-08T08:45:47.618Z,39.75
2017-04-08T08:46:45.498Z,40.50
2017-04-08T08:47:43.355Z,39.28
2017-04-08T08:48:41.227Z,41.35
2017-04-08T08:49:39.085Z,40.25
2017-04-08T08:50:36.978Z,42.10
2017-04-08T08:51:34.446Z,43.10
2017-04-08T08:52:32.323Z,39.42
2017-04-08T08:53:30.208Z,39.98
2017-04-08T08:54:28.070Z,41.42
2017-04-08T08:55:25.950Z,42.02
2017-04-08T08:56:23.850Z,42.35
2017-04-08T08:57:21.734Z,42.62
2017-04-08T08:58:19.206Z,42.28
2017-04-08T08:59:17.097Z,42.27
2017-04-08T09:00:15.006Z,41.30
2017-04-08T09:01:12.966Z,42.43
2017-04-08T09:02:10.876Z,40.55
2017-04-08T09:03:08.430Z,42.12
2017-04-08T09:04:05.920Z,42.22
2017-04-08T09:05:04.147Z,41.07
2017-04-08T09:06:02.010Z,40.18
2017-04-08T09:06:59.914Z,41.62
2017-04-08T09:07:57.838Z,43.37
2017-04-08T09:08:55.695Z,40.67
2017-04-08T09:09:53.591Z,40.87
2017-04-08T09:10:51.838Z,42.82
2017-04-08T09:11:49.706Z,43.22
2017-04-08T09:12:47.591Z,44.90
2017-04-08T09:13:45.120Z,39.82
2017-04-08T09:14:43.383Z,40.38
2017-04-08T09:15:41.314Z,40.33
2017-04-08T09:16:39.292Z,41.80
2017-04-08T09:17:36.783Z,39.22
2017-04-08T09:18:34.677Z,40.07
2017-04-08T09:19:32.567Z,42.02
2017-04-08T09:20:30.843Z,39.77
2017-04-08T09:21:29.105Z,41.87
2017-04-08T09:22:27.328Z,40.03
2017-04-08T09:23:25.181Z,38.33
2017-04-08T09:24:23.351Z,37.58
2017-04-08T09:25:21.208Z,46.35
2017-04-08T09:26:19.062Z,38.10
2017-04-08T09:27:16.986Z,40.00
2017-04-08T09:28:14.884Z,38.87
2017-04-08T09:29:12.734Z,40.62
2017-04-08T09:30:10.706Z,39.90
2017-04-08T09:31:08.573Z,36.92
2017-04-08T09:32:06.468Z,39.82
2017-04-08T09:33:04.423Z,36.62
2017-04-08T09:34:02.343Z,41.22
2017-04-08T09:35:00.302Z,41.37
2017-04-08T09:35:58.170Z,39.73
2017-04-08T09:36:55.643Z,39.85
2017-04-08T09:37:53.514Z,38.88
2017-04-08T09:38:51.403Z,39.18
2017-04-08T09:39:49.272Z,39.48
2017-04-08T09:40:46.774Z,41.50
2017-04-08T09:41:44.634Z,41.62
2017-04-08T09:42:42.500Z,38.78
2017-04-08T09:43:40.407Z,38.50
2017-04-08T09:44:38.315Z,39.77
2017-04-08T09:45:36.206Z,39.47
2017-04-08T09:46:34.502Z,39.87
2017-04-08T09:47:33.267Z,37.72
2017-04-08T09:48:31.430Z,39.53
2017-04-08T09:49:29.383Z,37.63
2017-04-08T09:50:27.327Z,37.20
2017-04-08T09:51:25.205Z,37.65
2017-04-08T09:52:24.006Z,35.80
2017-04-08T09:53:21.871Z,33.80
2017-04-08T09:54:19.723Z,33.92
2017-04-08T09:55:17.578Z,31.76
2017-04-08T09:56:15.479Z,24.77
2017-04-08T09:57:13.346Z,26.62
2017-04-08T09:58:10.807Z,27.77
2017-04-08T09:59:08.286Z,29.94
2017-04-08T10:00:06.289Z,29.13
2017-04-08T10:01:03.846Z,33.12
2017-04-08T10:02:01.371Z,32.55
2017-04-08T10:02:59.256Z,28.57
2017-04-08T10:03:57.122Z,25.18
2017-04-08T10:04:55.034Z,26.30
2017-04-08T10:05:52.901Z,32.00
2017-04-08T10:06:51.142Z,34.56
2017-04-08T10:07:49.110Z,36.27
2017-04-08T10:08:46.967Z,36.64
2017-04-08T10:09:44.832Z,35.14
2017-04-08T10:10:42.702Z,35.19
2017-04-08T10:11:40.613Z,35.09
2017-04-08T10:12:38.478Z,37.73
2017-04-08T10:13:36.442Z,37.90
2017-04-08T10:14:34.290Z,36.44
2017-04-08T10:15:32.159Z,35.56
2017-04-08T10:16:30.022Z,34.31
2017-04-08T10:17:27.875Z,37.50
2017-04-08T10:18:25.875Z,36.83
2017-04-08T10:19:24.277Z,36.99
2017-04-08T10:20:22.174Z,36.50
2017-04-08T10:21:20.027Z,35.81
2017-04-08T10:22:18.310Z,29.89
2017-04-08T10:23:16.175Z,28.79
2017-04-08T10:24:14.419Z,29.44
2017-04-08T10:25:12.370Z,35.26
2017-04-08T10:26:10.261Z,34.84
2017-04-08T10:27:08.502Z,32.19
2017-04-08T10:28:06.385Z,33.31
2017-04-08T10:29:04.257Z,31.99
2017-04-08T10:30:02.146Z,34.26
2017-04-08T10:31:00.190Z,33.47
2017-04-08T10:31:58.090Z,33.11
2017-04-08T10:32:56.077Z,32.87
2017-04-08T10:33:53.998Z,31.32
2017-04-08T10:34:51.919Z,34.90
2017-04-08T10:35:49.814Z,32.97
2017-04-08T10:36:47.756Z,32.47
2017-04-08T10:37:45.661Z,30.90
2017-04-08T10:38:43.539Z,32.50
2017-04-08T10:39:41.648Z,33.83
2017-04-08T10:40:39.594Z,33.37
2017-04-08T10:41:37.119Z,33.60
2017-04-08T10:42:35.186Z,34.55
2017-04-08T10:43:32.784Z,33.08
2017-04-08T10:44:31.040Z,33.80
2017-04-08T10:45:28.950Z,32.78
2017-04-08T10:46:26.854Z,33.02
2017-04-08T10:47:24.759Z,33.77
2017-04-08T10:48:23.075Z,33.60
2017-04-08T10:49:21.054Z,32.95
2017-04-08T10:50:18.977Z,33.38
2017-04-08T10:51:17.015Z,32.98
2017-04-08T10:52:15.039Z,33.27
2017-04-08T10:53:12.940Z,32.42
2017-04-08T10:54:10.999Z,31.12
2017-04-08T10:55:08.934Z,33.58
2017-04-08T10:56:06.474Z,32.42
2017-04-08T10:57:04.381Z,32.08
2017-04-08T10:58:02.286Z,30.13
2017-04-08T10:59:00.179Z,32.82
2017-04-08T10:59:57.719Z,31.53
2017-04-08T11:00:56.132Z,33.77
2017-04-08T11:01:54.066Z,31.95
2017-04-08T11:02:51.949Z,32.48
2017-04-08T11:03:49.847Z,33.97
2017-04-08T11:04:47.730Z,34.62
2017-04-08T11:05:45.307Z,34.25
2017-04-08T11:06:42.834Z,32.47
2017-04-08T11:07:40.734Z,32.87
2017-04-08T11:08:38.614Z,33.28
2017-04-08T11:09:36.536Z,34.14
2017-04-08T11:10:34.458Z,31.05
2017-04-08T11:11:32.428Z,31.42
2017-04-08T11:12:30.365Z,31.60
2017-04-08T11:13:28.666Z,33.48
2017-04-08T11:14:26.588Z,36.54
2017-04-08T11:15:24.481Z,33.48
2017-04-08T11:16:22.420Z,35.33
2017-04-08T11:17:20.368Z,31.63
2017-04-08T11:18:18.687Z,34.23
2017-04-08T11:19:16.622Z,33.37
2017-04-08T11:20:14.524Z,34.65
2017-04-08T11:21:12.426Z,35.82
2017-04-08T11:22:10.311Z,34.02
2017-04-08T11:23:08.235Z,34.13
2017-04-08T11:24:06.137Z,36.08
2017-04-08T11:25:04.046Z,33.02
2017-04-08T11:26:02.323Z,33.67
2017-04-08T11:27:00.234Z,35.15
2017-04-08T11:27:58.114Z,33.65
2017-04-08T11:28:56.069Z,37.85
2017-04-08T11:29:53.966Z,32.25
2017-04-08T11:30:51.926Z,33.40
2017-04-08T11:31:49.823Z,35.75
2017-04-08T11:32:47.715Z,34.57
2017-04-08T11:33:45.663Z,34.32
2017-04-08T11:34:43.253Z,34.22
2017-04-08T11:35:41.159Z,33.88
2017-04-08T11:36:39.014Z,32.87
2017-04-08T11:37:36.939Z,34.40
2017-04-08T11:38:34.820Z,33.70
2017-04-08T11:39:32.779Z,31.43
2017-04-08T11:40:30.723Z,32.67
2017-04-08T11:41:28.727Z,31.18
2017-04-08T11:42:26.627Z,34.47
2017-04-08T11:43:24.143Z,31.97
2017-04-08T11:44:22.033Z,32.42
2017-04-08T11:45:20.301Z,31.80
2017-04-08T11:46:18.207Z,30.40
2017-04-08T11:47:16.080Z,31.47
2017-04-08T11:48:14.001Z,34.02
2017-04-08T11:49:11.901Z,32.82
2017-04-08T11:50:09.790Z,32.65
2017-04-08T11:51:07.503Z,31.98
2017-04-08T11:52:05.475Z,31.08
2017-04-08T11:53:03.374Z,29.73
2017-04-08T11:54:01.639Z,29.77
2017-04-08T11:54:59.952Z,31.10
2017-04-08T11:55:57.829Z,29.13
2017-04-08T11:56:55.693Z,29.55
2017-04-08T11:57:53.630Z,28.85
2017-04-08T11:58:51.493Z,28.53
2017-04-08T11:59:49.369Z,28.25
2017-04-08T12:00:47.236Z,27.12
2017-04-08T12:01:44.730Z,25.63
2017-04-08T12:02:42.670Z,28.47
2017-04-08T12:03:40.228Z,25.13
2017-04-08T12:04:38.135Z,24.83
2017-04-08T12:05:35.859Z,25.40
2017-04-08T12:06:33.803Z,24.26
2017-04-08T12:07:31.721Z,23.66
2017-04-08T12:08:29.270Z,24.79
2017-04-08T12:09:27.256Z,23.80
2017-04-08T12:10:25.175Z,23.37
2017-04-08T12:12:27.666Z,23.76
2017-04-08T12:13:25.913Z,24.67
2017-04-08T12:14:24.223Z,23.14
2017-04-08T12:15:22.146Z,22.33
2017-04-08T12:16:20.047Z,22.66
2017-04-08T12:17:17.950Z,22.27
2017-04-08T12:18:16.214Z,22.30
2017-04-08T12:19:14.219Z,23.16
2017-04-08T12:20:11.710Z,22.51
2017-04-08T12:21:09.402Z,19.80
2017-04-08T12:22:07.001Z,21.23
2017-04-08T12:23:04.933Z,19.41
2017-04-08T12:24:02.858Z,18.70
2017-04-08T12:25:00.742Z,21.03
2017-04-08T12:25:58.305Z,19.19
2017-04-08T12:26:56.258Z,16.61